Time;durP1;ratioP1;P1;durP2;ratioP2;P2;SDS_P1;SDS_P2;PMS_P1;PMS_P2;Temp;Humidity;BMP_temperature;BMP_pressure;BME280_temperature;BME280_humidity;BME280_pressure;Samples;Min_cycle;Max_cycle;Signal;HPM_P1;HPM_P2
2022/06/28 00:01:06;;;;;;;;;;;;;;;26.95;47.42;99900.13;4420339;32;19995;-87
2022/06/28 00:03:33;;;;;;;;;;;;;;;27.07;47.14;99904.81;4417295;32;20307;-87
2022/06/28 00:06:00;;;;;;;;;;;;;;;26.98;47.52;99907.94;4413785;32;19970;-88
2022/06/28 00:08:27;;;;;;;;;;;;;;;26.98;47.53;99910.59;4422558;32;19985;-86
2022/06/28 00:10:54;;;;;;;;;;;;;;;26.75;48.06;99909.94;4416442;32;20028;-87
2022/06/28 00:13:21;;;;;;;;;;;;;;;26.94;47.00;99909.03;4416579;32;19989;-87
2022/06/28 00:16:06;;;;;;;;;;;;;;;26.93;47.08;99912.59;4410431;32;20001;-87
2022/06/28 00:18:37;;;;;;;;;;;;;;;26.99;46.95;99906.97;4420023;32;19978;-86
2022/06/28 00:21:06;;;;;;;;;;;;;;;26.82;47.29;99905.19;4423488;32;19982;-85
2022/06/28 00:23:33;;;;;;;;;;;;;;;26.79;47.37;99894.72;4422110;32;19978;-86
2022/06/28 00:26:01;;;;;;;;;;;;;;;26.64;48.11;99896.31;4416398;32;19982;-86
2022/06/28 00:28:27;;;;;;;;;;;;;;;26.65;48.01;99898.06;4416191;32;20000;-87
2022/06/28 00:30:54;;;;;;;;;;;;;;;26.73;47.46;99901.19;4417333;32;20014;-86
2022/06/28 00:33:22;;;;;;;;;;;;;;;26.63;47.52;99894.63;4418817;32;20274;-85
2022/06/28 00:35:49;;;;;;;;;;;;;;;26.62;47.92;99887.59;4416084;32;20854;-86
2022/06/28 00:38:16;;;;;;;;;;;;;;;26.71;47.85;99897.75;4416179;32;20291;-86
2022/06/28 00:40:45;;;;;;;;;;;;;;;26.41;49.25;99900.94;4416317;32;20359;-87
2022/06/28 00:43:13;;;;;;;;;;;;;;;26.46;48.75;99910.50;4416041;32;19974;-85
2022/06/28 00:45:41;;;;;;;;;;;;;;;26.56;48.39;99903.81;4415988;32;20316;-86
2022/06/28 00:48:08;;;;;;;;;;;;;;;26.48;48.55;99905.94;4416024;32;20040;-86
2022/06/28 00:50:35;;;;;;;;;;;;;;;26.41;48.34;99906.25;4415900;32;19989;-86
2022/06/28 00:53:04;;;;;;;;;;;;;;;26.51;48.33;99908.50;4414755;32;19999;-88
2022/06/28 00:55:31;;;;;;;;;;;;;;;26.44;48.39;99910.53;4429420;32;19989;-87
2022/06/28 00:57:58;;;;;;;;;;;;;;;26.40;48.60;99912.50;4414224;32;19978;-86
2022/06/28 01:00:25;;;;;;;;;;;;;;;26.25;49.23;99915.88;4419189;32;20088;-86
2022/06/28 01:02:52;;;;;;;;;;;;;;;26.40;48.70;99920.47;4411091;32;19978;-86
2022/06/28 01:05:19;;;;;;;;;;;;;;;26.33;48.86;99919.03;4399956;32;19986;-86
2022/06/28 01:07:46;;;;;;;;;;;;;;;26.38;48.73;99929.41;4394550;32;20307;-86
2022/06/28 01:10:13;;;;;;;;;;;;;;;26.24;49.20;99924.78;4414364;32;20084;-85
2022/06/28 01:12:40;;;;;;;;;;;;;;;26.22;49.13;99929.28;4406086;32;20052;-86
2022/06/28 01:15:08;;;;;;;;;;;;;;;26.32;48.06;99929.72;4403786;32;20327;-86
2022/06/28 01:17:35;;;;;;;;;;;;;;;26.26;48.61;99925.56;4394587;32;20046;-86
2022/06/28 01:20:06;;;;;;;;;;;;;;;26.15;48.89;99920.75;4413780;32;20317;-86
2022/06/28 01:22:38;;;;;;;;;;;;;;;26.09;49.32;99909.56;4416048;32;19995;-87
2022/06/28 01:25:07;;;;;;;;;;;;;;;26.09;49.53;99920.19;4402939;32;20039;-87
2022/06/28 01:27:34;;;;;;;;;;;;;;;26.10;49.64;99921.91;4428546;32;20665;-87
2022/06/28 01:30:05;;;;;;;;;;;;;;;26.05;49.74;99927.44;4398349;32;128921;-85
2022/06/28 01:32:33;;;;;;;;;;;;;;;26.00;50.03;99920.59;4408964;32;20328;-87
2022/06/28 01:35:02;;;;;;;;;;;;;;;26.14;49.46;99918.19;4426939;32;19990;-86
2022/06/28 01:37:29;;;;;;;;;;;;;;;26.13;49.41;99921.75;4415754;32;19978;-84
2022/06/28 01:39:57;;;;;;;;;;;;;;;26.08;49.29;99910.50;4420951;32;20013;-84
2022/06/28 01:42:23;;;;;;;;;;;;;;;26.09;49.19;99905.12;4412489;32;20020;-85
2022/06/28 01:44:50;;;;;;;;;;;;;;;26.08;49.51;99903.41;4427543;32;20004;-85
2022/06/28 01:47:18;;;;;;;;;;;;;;;25.94;50.00;99906.72;4411517;32;20485;-86
2022/06/28 01:49:47;;;;;;;;;;;;;;;26.01;49.91;99906.44;4417493;32;19982;-85
2022/06/28 01:52:13;;;;;;;;;;;;;;;25.98;49.49;99908.28;4400539;32;20294;-85
2022/06/28 01:54:41;;;;;;;;;;;;;;;25.87;49.98;99915.00;4399500;32;20034;-87
2022/06/28 01:57:08;;;;;;;;;;;;;;;25.62;51.19;99925.81;4402763;32;19974;-87
2022/06/28 01:59:38;;;;;;;;;;;;;;;25.79;50.48;99928.59;4400328;32;20408;-87
2022/06/28 02:02:06;;;;;;;;;;;;;;;25.82;50.31;99936.44;4401273;32;19994;-87
2022/06/28 02:04:34;;;;;;;;;;;;;;;25.88;49.58;99933.53;4400419;32;20061;-87
2022/06/28 02:07:01;;;;;;;;;;;;;;;25.93;49.31;99928.84;4397176;32;19997;-88
2022/06/28 02:09:28;;;;;;;;;;;;;;;25.91;49.45;99930.72;4404559;32;19982;-87
2022/06/28 02:11:56;;;;;;;;;;;;;;;25.87;49.85;99929.12;4400235;32;20039;-87
2022/06/28 02:14:23;;;;;;;;;;;;;;;25.86;49.77;99930.06;4400155;32;20001;-86
2022/06/28 02:16:52;;;;;;;;;;;;;;;25.68;50.80;99936.16;4397636;32;20048;-86
2022/06/28 02:19:19;;;;;;;;;;;;;;;25.68;50.45;99930.84;4406134;32;19990;-85
2022/06/28 02:21:46;;;;;;;;;;;;;;;25.67;50.79;99929.16;4406617;32;20338;-86
2022/06/28 02:24:13;;;;;;;;;;;;;;;25.58;50.93;99924.25;4419785;32;19978;-86
2022/06/28 02:26:40;;;;;;;;;;;;;;;25.56;50.99;99920.78;4417136;32;19978;-87
2022/06/28 02:29:07;;;;;;;;;;;;;;;25.70;50.29;99915.75;4418829;32;19993;-87
2022/06/28 02:31:36;;;;;;;;;;;;;;;25.73;50.47;99919.13;4418657;32;19990;-87
2022/06/28 02:34:04;;;;;;;;;;;;;;;25.67;50.56;99923.84;4427795;32;20028;-86
2022/06/28 02:42:03;;;;;;;;;;;;;;;25.49;50.67;99938.75;4417341;32;19974;-86
2022/06/28 02:44:30;;;;;;;;;;;;;;;25.49;50.56;99944.94;4414995;32;19986;-86
2022/06/28 02:46:57;;;;;;;;;;;;;;;25.51;50.58;99943.06;4422113;32;20476;-87
2022/06/28 02:49:25;;;;;;;;;;;;;;;25.65;49.71;99944.25;4417163;32;20034;-86
2022/06/28 02:51:51;;;;;;;;;;;;;;;25.54;50.35;99943.88;4416366;32;20637;-86
2022/06/28 02:54:18;;;;;;;;;;;;;;;25.54;50.11;99942.09;4417284;32;20016;-87
2022/06/28 02:56:45;;;;;;;;;;;;;;;25.68;50.00;99941.47;4111813;32;10000759;-84
2022/06/28 02:59:12;;;;;;;;;;;;;;;25.67;50.07;99934.44;4417098;32;20016;-86
2022/06/28 03:01:39;;;;;;;;;;;;;;;25.49;50.98;99931.69;4412824;32;20006;-85
2022/06/28 03:04:06;;;;;;;;;;;;;;;25.42;51.12;99930.22;4422857;32;20262;-86
2022/06/28 03:06:33;;;;;;;;;;;;;;;25.53;50.75;99924.47;4415510;32;20015;-86
2022/06/28 03:09:01;;;;;;;;;;;;;;;25.40;51.30;99926.78;4418541;32;20009;-86
2022/06/28 03:11:28;;;;;;;;;;;;;;;25.41;51.08;99923.22;4419969;32;19974;-89
2022/06/28 03:13:55;;;;;;;;;;;;;;;25.51;50.47;99919.22;4416877;32;19977;-88
2022/06/28 03:16:22;;;;;;;;;;;;;;;25.43;50.68;99920.47;4411069;32;19986;-88
2022/06/28 03:18:49;;;;;;;;;;;;;;;25.48;50.89;99922.00;4421752;32;20019;-88
2022/06/28 03:21:16;;;;;;;;;;;;;;;25.42;51.57;99927.56;4410297;32;19978;-89
2022/06/28 03:23:43;;;;;;;;;;;;;;;25.56;50.81;99942.00;4430561;32;20308;-87
2022/06/28 03:26:10;;;;;;;;;;;;;;;25.58;50.97;99950.75;4421909;32;19982;-87
2022/06/28 03:28:37;;;;;;;;;;;;;;;25.56;51.29;99960.56;4422836;32;19985;-88
2022/06/28 03:31:04;;;;;;;;;;;;;;;25.56;51.28;99965.84;4412538;32;20345;-88
2022/06/28 03:33:32;;;;;;;;;;;;;;;25.40;50.47;99978.91;4418517;32;20031;-89
2022/06/28 03:35:59;;;;;;;;;;;;;;;25.40;51.61;99990.41;4414665;32;19978;-89
2022/06/28 03:38:26;;;;;;;;;;;;;;;25.54;51.44;100007.50;4418938;32;19994;-89
2022/06/28 03:40:54;;;;;;;;;;;;;;;25.48;51.77;100009.47;4418938;32;19982;-88
2022/06/28 03:43:21;;;;;;;;;;;;;;;25.57;50.77;100020.63;4416836;32;20023;-89
2022/06/28 03:45:49;;;;;;;;;;;;;;;25.70;50.44;100024.47;4414714;32;19978;-90
2022/06/28 03:48:18;;;;;;;;;;;;;;;25.78;49.65;100032.94;4421394;32;19977;-88
2022/06/28 03:50:46;;;;;;;;;;;;;;;25.64;51.64;100041.50;4416741;32;19978;-89
2022/06/28 03:53:13;;;;;;;;;;;;;;;25.84;51.55;100048.59;4416661;32;19974;-89
2022/06/28 03:55:41;;;;;;;;;;;;;;;25.87;51.17;100052.94;4410389;32;19986;-88
2022/06/28 03:58:08;;;;;;;;;;;;;;;26.00;49.14;100055.91;4430372;32;20037;-88
2022/06/28 04:00:35;;;;;;;;;;;;;;;26.03;50.12;100053.13;4420846;32;20420;-88
2022/06/28 04:03:02;;;;;;;;;;;;;;;26.09;49.68;100053.69;4418235;32;19978;-89
2022/06/28 04:05:29;;;;;;;;;;;;;;;26.15;48.61;100044.63;4408273;32;20002;-89
2022/06/28 04:07:56;;;;;;;;;;;;;;;26.10;51.08;100049.25;4412700;32;19973;-89
2022/06/28 04:10:24;;;;;;;;;;;;;;;26.26;50.99;100045.00;4414197;32;20012;-89
2022/06/28 04:12:51;;;;;;;;;;;;;;;26.36;48.78;100050.75;4419295;32;20051;-89
2022/06/28 04:15:18;;;;;;;;;;;;;;;26.49;49.51;100061.69;4416609;32;19978;-89
2022/06/28 04:17:46;;;;;;;;;;;;;;;26.58;49.94;100066.56;4415253;32;20046;-87
2022/06/28 04:20:19;;;;;;;;;;;;;;;26.59;49.45;100069.16;4415996;32;20058;-88
2022/06/28 04:22:49;;;;;;;;;;;;;;;26.75;48.85;100071.09;4414901;32;19974;-88
2022/06/28 04:25:17;;;;;;;;;;;;;;;26.74;47.76;100067.59;4407390;32;20040;-89
2022/06/28 04:27:44;;;;;;;;;;;;;;;26.89;46.66;100065.97;4399178;32;20004;-89
2022/06/28 04:30:12;;;;;;;;;;;;;;;26.92;46.54;100059.66;4412631;32;20058;-89
2022/06/28 04:32:39;;;;;;;;;;;;;;;27.11;46.34;100066.66;4422979;32;19978;-90
2022/06/28 04:35:07;;;;;;;;;;;;;;;27.16;46.34;100061.19;4423351;32;20433;-87
2022/06/28 04:37:35;;;;;;;;;;;;;;;27.22;46.43;100067.97;4407422;32;20005;-86
2022/06/28 04:40:03;;;;;;;;;;;;;;;27.35;45.64;100095.69;4408974;32;19981;-82
2022/06/28 04:42:31;;;;;;;;;;;;;;;27.17;46.34;100108.06;4423045;32;19974;-82
2022/06/28 04:44:59;;;;;;;;;;;;;;;27.12;44.80;100104.72;4426895;32;19986;-83
2022/06/28 04:47:27;;;;;;;;;;;;;;;27.48;43.49;100122.53;4415297;32;20518;-92
2022/06/28 04:49:54;;;;;;;;;;;;;;;27.05;44.57;100140.50;4429426;32;19985;-89
2022/06/28 04:52:21;;;;;;;;;;;;;;;27.35;43.75;100130.25;4416522;32;19981;-82
2022/06/28 04:54:48;;;;;;;;;;;;;;;27.64;42.95;100144.78;4410664;32;19978;-83
2022/06/28 04:57:19;;;;;;;;;;;;;;;27.59;43.43;100139.66;4412980;32;19989;-83
2022/06/28 04:59:46;;;;;;;;;;;;;;;27.59;43.81;100137.00;4411936;32;20045;-83
2022/06/28 05:02:14;;;;;;;;;;;;;;;27.62;43.54;100149.31;4431603;32;19974;-82
2022/06/28 05:04:41;;;;;;;;;;;;;;;27.51;44.07;100139.19;4427438;32;20002;-83
2022/06/28 05:07:09;;;;;;;;;;;;;;;27.60;44.21;100127.25;4416063;32;20008;-83
2022/06/28 05:09:53;;;;;;;;;;;;;;;27.83;43.44;100139.44;4414534;32;19993;-83
2022/06/28 05:12:20;;;;;;;;;;;;;;;27.91;43.36;100152.34;4419326;32;20012;-82
2022/06/28 05:14:49;;;;;;;;;;;;;;;27.87;43.26;100153.44;4412630;32;20360;-83
2022/06/28 05:17:16;;;;;;;;;;;;;;;27.53;44.26;100160.38;4422392;32;20549;-84
2022/06/28 05:19:43;;;;;;;;;;;;;;;27.52;44.32;100171.97;4416361;32;19985;-83
2022/06/28 05:22:10;;;;;;;;;;;;;;;27.72;43.72;100177.16;4427214;32;19977;-84
2022/06/28 05:24:38;;;;;;;;;;;;;;;27.80;43.86;100169.69;4418615;32;20084;-84
2022/06/28 05:27:07;;;;;;;;;;;;;;;27.60;44.98;100164.50;4416554;32;20022;-84
2022/06/28 05:29:35;;;;;;;;;;;;;;;27.32;46.00;100149.88;4416251;32;20076;-83
2022/06/28 05:32:02;;;;;;;;;;;;;;;27.52;45.63;100142.72;4433056;32;20400;-84
2022/06/28 05:34:30;;;;;;;;;;;;;;;27.42;46.23;100133.47;4413183;32;20653;-84
2022/06/28 05:36:56;;;;;;;;;;;;;;;27.25;47.21;100137.81;4419682;32;20076;-83
2022/06/28 05:39:23;;;;;;;;;;;;;;;27.27;47.35;100135.94;4415912;32;20381;-84
2022/06/28 05:41:50;;;;;;;;;;;;;;;27.50;47.85;100131.28;4415754;32;20298;-84
2022/06/28 05:44:17;;;;;;;;;;;;;;;27.34;52.66;100091.28;4417332;32;19997;-84
2022/06/28 05:46:44;;;;;;;;;;;;;;;27.32;55.82;100096.69;4415924;32;20016;-84
2022/06/28 05:49:11;;;;;;;;;;;;;;;27.15;56.52;100051.47;4415247;32;20323;-83
2022/06/28 05:51:38;;;;;;;;;;;;;;;27.35;55.83;100016.78;4415082;32;19982;-84
2022/06/28 05:54:05;;;;;;;;;;;;;;;27.02;56.98;100011.31;4413896;32;20667;-84
2022/06/28 05:56:35;;;;;;;;;;;;;;;26.98;57.42;100022.19;4429684;32;20048;-83
2022/06/28 05:59:04;;;;;;;;;;;;;;;26.84;58.37;100030.81;4416305;32;20312;-83
2022/06/28 06:01:31;;;;;;;;;;;;;;;26.37;58.90;100037.41;4415743;32;20382;-83
2022/06/28 06:03:59;;;;;;;;;;;;;;;26.72;58.46;100037.56;4431137;32;20913;-83
2022/06/28 06:06:26;;;;;;;;;;;;;;;26.75;58.62;100032.12;4415348;32;19965;-83
2022/06/28 06:08:53;;;;;;;;;;;;;;;26.79;58.86;100028.38;4421553;32;19978;-84
2022/06/28 06:11:21;;;;;;;;;;;;;;;26.86;59.12;100021.81;4416957;32;20035;-83
2022/06/28 06:13:48;;;;;;;;;;;;;;;26.86;59.80;100013.84;4432081;32;20297;-83
2022/06/28 06:16:15;;;;;;;;;;;;;;;27.06;58.89;99993.44;4416306;32;19982;-84
2022/06/28 06:18:42;;;;;;;;;;;;;;;27.08;58.62;99970.28;4413190;32;19988;-84
2022/06/28 06:21:09;;;;;;;;;;;;;;;26.90;59.45;99946.38;4400009;32;20002;-85
2022/06/28 06:23:36;;;;;;;;;;;;;;;26.78;60.33;99946.97;4413687;32;20060;-85
2022/06/28 06:26:05;;;;;;;;;;;;;;;26.76;60.34;99996.66;4420717;32;20054;-84
2022/06/28 06:28:35;;;;;;;;;;;;;;;26.85;59.49;100081.22;3807943;32;10011321;-84
2022/06/28 06:31:02;;;;;;;;;;;;;;;26.72;59.18;100071.25;4416386;32;19990;-84
2022/06/28 06:33:31;;;;;;;;;;;;;;;25.98;61.31;100043.56;4419006;32;20350;-84
2022/06/28 06:35:58;;;;;;;;;;;;;;;26.19;59.42;100035.56;4418552;32;19973;-85
2022/06/28 06:38:25;;;;;;;;;;;;;;;26.30;58.04;100012.06;4416866;32;19982;-84
2022/06/28 06:40:55;;;;;;;;;;;;;;;26.52;59.35;99974.81;4417275;32;19999;-84
2022/06/28 06:43:22;;;;;;;;;;;;;;;26.43;58.06;99962.78;4412246;32;20004;-85
2022/06/28 06:45:51;;;;;;;;;;;;;;;26.12;59.85;100012.91;4402602;32;20040;-85
2022/06/28 06:48:19;;;;;;;;;;;;;;;26.13;60.06;100043.81;4407572;32;20034;-84
2022/06/28 06:50:46;;;;;;;;;;;;;;;26.13;60.11;100038.50;4408443;32;19978;-85
2022/06/28 06:53:12;;;;;;;;;;;;;;;26.40;59.98;100079.72;4401352;32;20001;-85
2022/06/28 06:55:41;;;;;;;;;;;;;;;26.24;59.78;100077.84;4401595;32;19978;-84
2022/06/28 06:58:08;;;;;;;;;;;;;;;26.02;59.65;100070.81;4403909;32;19986;-85
2022/06/28 07:00:35;;;;;;;;;;;;;;;26.10;59.21;100083.75;4412535;32;20024;-85
2022/06/28 07:03:02;;;;;;;;;;;;;;;26.00;59.77;100074.47;4401257;32;19990;-85
2022/06/28 07:05:29;;;;;;;;;;;;;;;26.06;59.19;100058.28;4400849;32;20744;-84
2022/06/28 07:07:56;;;;;;;;;;;;;;;26.03;59.52;100069.88;4401566;32;20010;-86
2022/06/28 07:10:26;;;;;;;;;;;;;;;26.05;60.31;100061.88;4397673;32;19994;-85
2022/06/28 07:12:53;;;;;;;;;;;;;;;25.58;60.17;100035.59;4400646;32;20005;-85
2022/06/28 07:15:20;;;;;;;;;;;;;;;25.81;59.48;100040.78;4399074;32;19982;-85
2022/06/28 07:17:47;;;;;;;;;;;;;;;25.93;59.81;100034.09;4402460;32;20005;-84
2022/06/28 07:20:15;;;;;;;;;;;;;;;25.91;60.33;100026.22;4400626;32;19981;-85
2022/06/28 07:22:42;;;;;;;;;;;;;;;25.86;60.20;100030.84;4398706;32;20017;-84
2022/06/28 07:25:11;;;;;;;;;;;;;;;25.97;59.54;100018.00;4401004;32;19988;-85
2022/06/28 07:27:38;;;;;;;;;;;;;;;25.82;60.39;100010.72;4400341;32;20002;-85
2022/06/28 07:30:05;;;;;;;;;;;;;;;25.64;60.70;99998.22;4397138;32;20043;-85
2022/06/28 07:32:33;;;;;;;;;;;;;;;25.51;60.58;99987.28;4403211;32;20316;-86
2022/06/28 07:35:03;;;;;;;;;;;;;;;25.85;59.65;99997.31;4400720;32;20045;-85
2022/06/28 07:37:30;;;;;;;;;;;;;;;25.92;59.27;99998.75;4387099;32;20039;-84
2022/06/28 07:39:57;;;;;;;;;;;;;;;26.15;59.63;100026.03;4393471;32;20128;-85
2022/06/28 07:42:25;;;;;;;;;;;;;;;26.09;59.27;100052.84;4391002;32;20061;-84
2022/06/28 07:44:55;;;;;;;;;;;;;;;26.08;59.90;100033.41;4399981;32;20270;-85
2022/06/28 07:47:22;;;;;;;;;;;;;;;26.01;60.73;100044.37;4387796;32;19997;-86
2022/06/28 07:52:35;;;;;;;;;;;;;;;26.30;59.48;100078.44;4366565;32;20013;-84
2022/06/28 07:55:03;;;;;;;;;;;;;;;26.22;57.54;100096.47;4423371;32;19974;-85
2022/06/28 07:57:32;;;;;;;;;;;;;;;26.10;58.17;100091.69;4416577;32;20020;-85
2022/06/28 07:59:59;;;;;;;;;;;;;;;25.97;59.77;100092.25;4410531;32;19973;-86
2022/06/28 08:02:26;;;;;;;;;;;;;;;25.97;60.47;100086.97;4403903;32;19983;-86
2022/06/28 08:04:53;;;;;;;;;;;;;;;26.09;60.33;100087.34;4423257;32;19990;-83
2022/06/28 08:07:20;;;;;;;;;;;;;;;26.18;59.72;100085.13;4416694;32;20045;-87
2022/06/28 08:09:53;;;;;;;;;;;;;;;26.16;59.27;100092.31;4414416;32;20384;-86
2022/06/28 08:12:20;;;;;;;;;;;;;;;26.21;58.90;100085.00;4419459;32;20698;-88
2022/06/28 08:14:48;;;;;;;;;;;;;;;26.21;58.49;100078.84;4442642;32;19977;-89
2022/06/28 08:17:15;;;;;;;;;;;;;;;26.14;59.75;100077.41;4416394;32;19978;-86
2022/06/28 08:19:42;;;;;;;;;;;;;;;26.21;59.24;100073.53;4401957;32;20380;-86
2022/06/28 08:22:09;;;;;;;;;;;;;;;26.25;59.24;100063.63;4421470;32;19986;-91
2022/06/28 08:24:36;;;;;;;;;;;;;;;26.46;58.91;100072.44;4416792;32;19992;-85
2022/06/28 08:27:06;;;;;;;;;;;;;;;26.42;58.98;100066.41;4413374;32;19978;-88
2022/06/28 08:29:34;;;;;;;;;;;;;;;26.51;58.68;100065.13;4412325;32;19985;-86
2022/06/28 08:32:01;;;;;;;;;;;;;;;26.49;58.96;100067.87;4410362;32;19998;-89
2022/06/28 08:34:31;;;;;;;;;;;;;;;26.48;59.06;100076.75;4399385;32;20041;-87
2022/06/28 08:36:58;;;;;;;;;;;;;;;26.50;58.29;100079.34;4405642;32;19978;-87
2022/06/28 08:39:25;;;;;;;;;;;;;;;26.45;58.87;100079.50;4415349;32;19978;-85
2022/06/28 08:41:52;;;;;;;;;;;;;;;26.58;58.41;100087.81;4413386;32;20005;-86
2022/06/28 08:44:19;;;;;;;;;;;;;;;26.84;58.23;100082.16;4420987;32;20276;-86
2022/06/28 08:46:48;;;;;;;;;;;;;;;27.03;58.18;100089.25;4416279;32;19979;-87
2022/06/28 08:49:20;;;;;;;;;;;;;;;27.08;58.20;100092.53;4426070;32;19982;-85
2022/06/28 08:51:47;;;;;;;;;;;;;;;27.45;55.80;100090.78;4420076;32;19981;-87
2022/06/28 08:54:14;;;;;;;;;;;;;;;27.28;57.34;100100.47;4400242;32;19982;-88
2022/06/28 08:56:40;;;;;;;;;;;;;;;27.51;55.30;100095.81;4413834;32;19986;-85
2022/06/28 08:59:07;;;;;;;;;;;;;;;27.45;55.99;100101.41;4428578;32;20638;-88
2022/06/28 09:01:34;;;;;;;;;;;;;;;27.49;57.86;100106.50;4416182;32;19978;-87
2022/06/28 09:04:01;;;;;;;;;;;;;;;27.59;57.10;100106.91;4431417;32;19978;-87
2022/06/28 09:06:28;;;;;;;;;;;;;;;27.70;54.25;100115.22;4415887;32;20045;-84
2022/06/28 09:08:58;;;;;;;;;;;;;;;27.97;52.11;100120.09;4414052;32;20004;-85
2022/06/28 09:11:25;;;;;;;;;;;;;;;28.08;52.60;100112.44;4418402;32;20010;-84
2022/06/28 09:13:54;;;;;;;;;;;;;;;28.20;50.99;100114.41;4416380;32;19988;-85
2022/06/28 09:16:23;;;;;;;;;;;;;;;28.31;51.64;100126.34;4410513;32;20012;-86
2022/06/28 09:18:50;;;;;;;;;;;;;;;28.31;54.14;100123.66;4418203;32;19969;-83
2022/06/28 09:21:18;;;;;;;;;;;;;;;28.06;56.29;100124.94;4416167;32;20352;-85
2022/06/28 09:23:49;;;;;;;;;;;;;;;28.20;58.23;100122.41;4415033;32;19992;-86
2022/06/28 09:26:17;;;;;;;;;;;;;;;28.78;54.42;100117.59;4415057;32;20033;-85
2022/06/28 09:28:45;;;;;;;;;;;;;;;28.96;56.90;100127.25;4417665;32;19987;-86
2022/06/28 09:31:15;;;;;;;;;;;;;;;29.06;55.55;100116.97;4406459;32;20007;-86
2022/06/28 09:33:44;;;;;;;;;;;;;;;29.11;53.63;100115.75;4409374;32;19966;-86
2022/06/28 09:36:15;;;;;;;;;;;;;;;29.35;54.43;100112.63;4426648;32;19982;-86
2022/06/28 09:38:42;;;;;;;;;;;;;;;29.98;49.63;100117.84;4415748;32;20020;-85
2022/06/28 09:41:21;;;;;;;;;;;;;;;29.77;55.36;100124.44;4415863;32;20004;-85
2022/06/28 09:43:57;;;;;;;;;;;;;;;30.37;48.47;100128.87;4427154;32;19997;-85
2022/06/28 09:46:26;;;;;;;;;;;;;;;30.13;50.42;100124.94;4413261;32;20053;-85
2022/06/28 09:49:01;;;;;;;;;;;;;;;30.19;51.89;100130.88;4426346;32;20057;-86
2022/06/28 09:51:29;;;;;;;;;;;;;;;30.19;51.14;100123.75;4418119;32;20712;-85
2022/06/28 09:54:00;;;;;;;;;;;;;;;30.33;49.46;100130.91;4418323;32;20386;-85
2022/06/28 09:56:46;;;;;;;;;;;;;;;30.74;46.46;100127.47;4399475;32;19978;-86
2022/06/28 09:59:16;;;;;;;;;;;;;;;31.10;47.07;100123.41;4402024;32;20008;-87
2022/06/28 10:01:43;;;;;;;;;;;;;;;30.95;49.09;100134.16;4398648;32;19996;-87
2022/06/28 10:04:10;;;;;;;;;;;;;;;31.12;47.95;100124.19;4398678;32;19993;-85
2022/06/28 10:06:37;;;;;;;;;;;;;;;31.44;47.18;100128.31;4400281;32;19993;-86
2022/06/28 10:09:09;;;;;;;;;;;;;;;31.63;46.00;100121.75;4399049;32;20008;-85
2022/06/28 10:17:29;;;;;;;;;;;;;;;32.02;46.25;100123.56;4398978;32;20042;-83
2022/06/28 10:19:58;;;;;;;;;;;;;;;32.25;45.03;100124.63;4390220;32;19978;-84
2022/06/28 10:22:26;;;;;;;;;;;;;;;32.16;46.69;100125.28;3735163;32;10011042;-85
2022/06/28 10:24:54;;;;;;;;;;;;;;;32.18;46.93;100123.34;4400926;32;20030;-83
2022/06/28 10:27:21;;;;;;;;;;;;;;;32.65;44.67;100122.72;4401231;32;20037;-84
2022/06/28 10:30:00;;;;;;;;;;;;;;;32.71;41.61;100121.44;4398146;32;20024;-86
2022/06/28 10:32:39;;;;;;;;;;;;;;;32.39;43.83;100121.00;4401335;32;20052;-85
2022/06/28 10:35:28;;;;;;;;;;;;;;;32.38;47.25;100119.28;4400164;32;19996;-85
2022/06/28 10:38:09;;;;;;;;;;;;;;;32.55;44.76;100115.47;4399540;32;19981;-86
2022/06/28 10:40:47;;;;;;;;;;;;;;;32.89;43.20;100114.72;4392600;32;20807;-87
2022/06/28 10:43:26;;;;;;;;;;;;;;;32.89;44.15;100109.34;4399135;32;19982;-88
2022/06/28 10:46:07;;;;;;;;;;;;;;;33.07;43.46;100106.34;4425175;32;20031;-87
2022/06/28 10:48:49;;;;;;;;;;;;;;;33.02;42.21;100106.66;4417185;32;19990;-85
2022/06/28 10:51:22;;;;;;;;;;;;;;;33.04;40.65;100101.22;4424085;32;19985;-87
2022/06/28 10:53:54;;;;;;;;;;;;;;;33.33;40.90;100097.22;4413190;32;20004;-86
2022/06/28 10:56:22;;;;;;;;;;;;;;;32.96;45.42;100103.53;4402078;32;19978;-87
2022/06/28 10:58:55;;;;;;;;;;;;;;;33.46;40.98;100096.28;4418011;32;19977;-87
2022/06/28 11:01:44;;;;;;;;;;;;;;;33.42;42.88;100094.81;4429996;32;19977;-85
2022/06/28 11:04:21;;;;;;;;;;;;;;;33.62;40.47;100096.88;4421683;32;20074;-81
2022/06/28 11:06:53;;;;;;;;;;;;;;;33.77;40.23;100101.06;4420654;32;19974;-81
2022/06/28 11:09:20;;;;;;;;;;;;;;;33.83;40.13;100098.91;4422312;32;19986;-84
2022/06/28 11:12:05;;;;;;;;;;;;;;;33.84;39.67;100096.09;4416949;32;19974;-82
2022/06/28 11:14:34;;;;;;;;;;;;;;;33.94;37.95;100094.41;4417022;32;20346;-83
2022/06/28 11:17:16;;;;;;;;;;;;;;;33.89;38.09;100098.41;4423207;32;19981;-83
2022/06/28 11:19:53;;;;;;;;;;;;;;;33.71;42.86;100093.50;4432089;32;19977;-81
2022/06/28 11:22:27;;;;;;;;;;;;;;;33.71;38.45;100084.59;4431625;32;19994;-82
2022/06/28 11:24:59;;;;;;;;;;;;;;;34.05;38.40;100093.63;4416756;32;20036;-83
2022/06/28 11:27:27;;;;;;;;;;;;;;;33.67;39.90;100094.72;4417027;32;20084;-84
2022/06/28 11:29:55;;;;;;;;;;;;;;;33.77;39.09;100090.34;4429799;32;19982;-84
2022/06/28 11:32:32;;;;;;;;;;;;;;;33.96;38.31;100086.25;4434526;32;20005;-84
2022/06/28 11:35:00;;;;;;;;;;;;;;;33.76;39.90;100094.00;4427657;32;19993;-84
2022/06/28 11:37:31;;;;;;;;;;;;;;;34.17;38.51;100081.88;4414851;32;19977;-85
2022/06/28 11:40:02;;;;;;;;;;;;;;;33.38;43.02;100077.22;4419880;32;20365;-84
2022/06/28 11:42:29;;;;;;;;;;;;;;;33.59;40.57;100081.00;4415827;32;20639;-84
2022/06/28 11:44:56;;;;;;;;;;;;;;;34.12;38.14;100076.03;4416685;32;19989;-82
2022/06/28 11:47:23;;;;;;;;;;;;;;;34.29;37.98;100063.09;4416599;32;19997;-83
2022/06/28 11:50:10;;;;;;;;;;;;;;;34.21;38.12;100072.62;4428049;32;19986;-85
2022/06/28 11:52:50;;;;;;;;;;;;;;;34.24;38.30;100061.63;4417886;32;19973;-85
2022/06/28 11:55:18;;;;;;;;;;;;;;;34.21;39.86;100072.62;4417502;32;19993;-85
2022/06/28 11:58:07;;;;;;;;;;;;;;;34.20;39.70;100065.50;4416211;32;19973;-85
2022/06/28 12:00:34;;;;;;;;;;;;;;;34.39;38.21;100064.06;4416326;32;19986;-85
2022/06/28 12:03:06;;;;;;;;;;;;;;;34.20;40.95;100048.53;4422608;32;20008;-84
2022/06/28 12:05:37;;;;;;;;;;;;;;;34.26;40.49;100059.66;4436099;32;20039;-85
2022/06/28 12:08:07;;;;;;;;;;;;;;;34.04;40.70;100051.59;4441687;32;20747;-84
2022/06/28 12:10:34;;;;;;;;;;;;;;;34.66;36.37;100048.44;4423779;32;19996;-84
2022/06/28 12:13:09;;;;;;;;;;;;;;;34.58;37.80;100040.13;4429964;32;20028;-85
2022/06/28 12:15:39;;;;;;;;;;;;;;;34.55;37.07;100026.94;4411324;32;20033;-84
2022/06/28 12:18:07;;;;;;;;;;;;;;;34.82;36.36;100039.12;4407902;32;20018;-85
2022/06/28 12:20:37;;;;;;;;;;;;;;;34.67;36.49;100031.31;4412084;32;20074;-83
2022/06/28 12:23:05;;;;;;;;;;;;;;;34.12;38.98;100035.72;4415015;32;20282;-83
2022/06/28 12:25:32;;;;;;;;;;;;;;;34.58;37.23;100032.06;4424040;32;20362;-83
2022/06/28 12:27:59;;;;;;;;;;;;;;;34.37;39.10;100026.56;4408020;32;20023;-83
2022/06/28 12:30:27;;;;;;;;;;;;;;;34.51;38.40;100025.44;4411935;32;20110;-82
2022/06/28 12:32:58;;;;;;;;;;;;;;;34.57;38.70;100030.34;4411489;32;20658;-83
2022/06/28 12:35:25;;;;;;;;;;;;;;;34.53;37.63;100020.84;4399887;32;19994;-83
2022/06/28 12:37:54;;;;;;;;;;;;;;;34.76;36.69;100024.34;4398046;32;20510;-82
2022/06/28 12:40:21;;;;;;;;;;;;;;;34.91;35.82;100017.69;4395595;32;19978;-82
2022/06/28 12:42:48;;;;;;;;;;;;;;;34.85;35.72;100017.34;4393608;32;20304;-84
2022/06/28 12:45:15;;;;;;;;;;;;;;;34.71;36.51;100008.56;4390737;32;20081;-83
2022/06/28 12:47:51;;;;;;;;;;;;;;;34.63;37.91;100002.97;4391881;32;19986;-83
2022/06/28 12:50:21;;;;;;;;;;;;;;;34.60;37.27;100000.53;4392776;32;19978;-85
2022/06/28 12:52:50;;;;;;;;;;;;;;;34.67;37.80;99999.03;4395214;32;20000;-86
2022/06/28 12:55:19;;;;;;;;;;;;;;;34.74;36.52;100003.91;4394371;32;20406;-86
2022/06/28 12:57:46;;;;;;;;;;;;;;;34.58;38.78;99999.78;4392173;32;20274;-85
2022/06/28 13:00:13;;;;;;;;;;;;;;;34.64;37.46;99993.91;4393335;32;20002;-84
2022/06/28 13:02:42;;;;;;;;;;;;;;;34.86;37.46;99986.78;4395744;32;20364;-84